sensor_id;sensor_type;location;lat;lon;timestamp;P1;durP1;ratioP1;P2;durP2;ratioP2
12467;SDS011;57850;52.922;6.256;2023-07-08T00:00:17;5.82;;;3.70;;
12467;SDS011;57850;52.922;6.256;2023-07-08T00:02:45;5.63;;;3.50;;
12467;SDS011;57850;52.922;6.256;2023-07-08T00:05:13;5.93;;;3.90;;
12467;SDS011;57850;52.922;6.256;2023-07-08T00:07:41;7.28;;;3.92;;
12467;SDS011;57850;52.922;6.256;2023-07-08T00:10:12;6.07;;;3.60;;
12467;SDS011;57850;52.922;6.256;2023-07-08T00:12:40;8.05;;;3.72;;
12467;SDS011;57850;52.922;6.256;2023-07-08T00:15:08;8.95;;;3.65;;
12467;SDS011;57850;52.922;6.256;2023-07-08T00:17:37;6.68;;;3.60;;
12467;SDS011;57850;52.922;6.256;2023-07-08T00:20:18;5.05;;;3.75;;
12467;SDS011;57850;52.922;6.256;2023-07-08T00:22:47;4.70;;;3.70;;
12467;SDS011;57850;52.922;6.256;2023-07-08T00:25:15;6.68;;;4.18;;
12467;SDS011;57850;52.922;6.256;2023-07-08T00:27:42;4.93;;;3.45;;
12467;SDS011;57850;52.922;6.256;2023-07-08T00:30:11;5.32;;;3.70;;
12467;SDS011;57850;52.922;6.256;2023-07-08T00:32:54;6.45;;;3.90;;
12467;SDS011;57850;52.922;6.256;2023-07-08T00:35:22;7.10;;;4.20;;
12467;SDS011;57850;52.922;6.256;2023-07-08T00:37:54;6.13;;;3.95;;
12467;SDS011;57850;52.922;6.256;2023-07-08T00:40:27;6.63;;;3.83;;
12467;SDS011;57850;52.922;6.256;2023-07-08T00:42:55;4.38;;;3.78;;
12467;SDS011;57850;52.922;6.256;2023-07-08T00:45:29;7.38;;;4.03;;
12467;SDS011;57850;52.922;6.256;2023-07-08T00:48:05;5.45;;;4.15;;
12467;SDS011;57850;52.922;6.256;2023-07-08T00:50:42;6.38;;;3.88;;
12467;SDS011;57850;52.922;6.256;2023-07-08T00:53:26;7.05;;;4.13;;
12467;SDS011;57850;52.922;6.256;2023-07-08T00:55:55;5.70;;;3.70;;
12467;SDS011;57850;52.922;6.256;2023-07-08T00:58:25;5.63;;;4.20;;
12467;SDS011;57850;52.922;6.256;2023-07-08T01:00:59;6.35;;;3.42;;
12467;SDS011;57850;52.922;6.256;2023-07-08T01:03:31;5.25;;;3.90;;
12467;SDS011;57850;52.922;6.256;2023-07-08T01:06:02;6.05;;;4.30;;
12467;SDS011;57850;52.922;6.256;2023-07-08T01:08:31;6.28;;;4.25;;
12467;SDS011;57850;52.922;6.256;2023-07-08T01:11:00;5.00;;;4.07;;
12467;SDS011;57850;52.922;6.256;2023-07-08T01:13:31;9.52;;;4.05;;
12467;SDS011;57850;52.922;6.256;2023-07-08T01:16:03;7.32;;;3.88;;
12467;SDS011;57850;52.922;6.256;2023-07-08T01:18:33;6.40;;;3.83;;
12467;SDS011;57850;52.922;6.256;2023-07-08T01:21:02;6.78;;;4.18;;
12467;SDS011;57850;52.922;6.256;2023-07-08T01:23:32;5.90;;;3.67;;
12467;SDS011;57850;52.922;6.256;2023-07-08T01:26:00;5.82;;;3.90;;
12467;SDS011;57850;52.922;6.256;2023-07-08T01:28:28;6.05;;;3.80;;
12467;SDS011;57850;52.922;6.256;2023-07-08T01:30:56;7.13;;;4.57;;
12467;SDS011;57850;52.922;6.256;2023-07-08T01:33:23;4.90;;;4.00;;
12467;SDS011;57850;52.922;6.256;2023-07-08T01:35:51;6.97;;;4.13;;
12467;SDS011;57850;52.922;6.256;2023-07-08T01:38:20;7.82;;;4.35;;
12467;SDS011;57850;52.922;6.256;2023-07-08T01:40:53;7.18;;;4.72;;
12467;SDS011;57850;52.922;6.256;2023-07-08T01:43:22;6.13;;;4.57;;
12467;SDS011;57850;52.922;6.256;2023-07-08T01:45:49;5.95;;;4.63;;
12467;SDS011;57850;52.922;6.256;2023-07-08T01:48:19;6.47;;;4.50;;
12467;SDS011;57850;52.922;6.256;2023-07-08T01:50:50;6.15;;;4.13;;
12467;SDS011;57850;52.922;6.256;2023-07-08T01:53:22;4.82;;;4.05;;
12467;SDS011;57850;52.922;6.256;2023-07-08T01:55:56;8.23;;;4.40;;
12467;SDS011;57850;52.922;6.256;2023-07-08T01:58:23;8.75;;;5.07;;
12467;SDS011;57850;52.922;6.256;2023-07-08T02:00:51;8.80;;;4.80;;
12467;SDS011;57850;52.922;6.256;2023-07-08T02:03:18;6.97;;;4.10;;
12467;SDS011;57850;52.922;6.256;2023-07-08T02:05:45;7.35;;;4.20;;
12467;SDS011;57850;52.922;6.256;2023-07-08T02:08:12;8.18;;;4.43;;
12467;SDS011;57850;52.922;6.256;2023-07-08T02:10:40;6.40;;;4.32;;
12467;SDS011;57850;52.922;6.256;2023-07-08T02:13:09;7.78;;;4.70;;
12467;SDS011;57850;52.922;6.256;2023-07-08T02:15:36;6.65;;;4.38;;
12467;SDS011;57850;52.922;6.256;2023-07-08T02:18:03;8.68;;;4.50;;
12467;SDS011;57850;52.922;6.256;2023-07-08T02:20:29;7.43;;;4.97;;
12467;SDS011;57850;52.922;6.256;2023-07-08T02:22:56;6.30;;;4.50;;
12467;SDS011;57850;52.922;6.256;2023-07-08T02:25:23;7.15;;;5.07;;
12467;SDS011;57850;52.922;6.256;2023-07-08T02:27:49;11.00;;;4.63;;
12467;SDS011;57850;52.922;6.256;2023-07-08T02:30:17;10.57;;;4.68;;
12467;SDS011;57850;52.922;6.256;2023-07-08T02:32:44;5.20;;;4.35;;
12467;SDS011;57850;52.922;6.256;2023-07-08T02:35:14;7.85;;;4.72;;
12467;SDS011;57850;52.922;6.256;2023-07-08T02:37:40;6.55;;;4.85;;
12467;SDS011;57850;52.922;6.256;2023-07-08T02:40:07;5.70;;;4.10;;
12467;SDS011;57850;52.922;6.256;2023-07-08T02:42:35;7.65;;;4.65;;
12467;SDS011;57850;52.922;6.256;2023-07-08T02:45:01;8.98;;;5.40;;
12467;SDS011;57850;52.922;6.256;2023-07-08T02:47:30;9.20;;;5.28;;
12467;SDS011;57850;52.922;6.256;2023-07-08T02:49:57;8.48;;;5.22;;
12467;SDS011;57850;52.922;6.256;2023-07-08T02:52:23;7.97;;;4.70;;
12467;SDS011;57850;52.922;6.256;2023-07-08T02:54:50;6.75;;;5.00;;
12467;SDS011;57850;52.922;6.256;2023-07-08T02:57:16;7.70;;;4.78;;
12467;SDS011;57850;52.922;6.256;2023-07-08T02:59:43;6.82;;;4.50;;
12467;SDS011;57850;52.922;6.256;2023-07-08T03:02:09;10.20;;;4.93;;
12467;SDS011;57850;52.922;6.256;2023-07-08T03:04:37;9.20;;;5.20;;
12467;SDS011;57850;52.922;6.256;2023-07-08T03:07:04;7.30;;;4.80;;
12467;SDS011;57850;52.922;6.256;2023-07-08T03:09:36;11.35;;;5.60;;
12467;SDS011;57850;52.922;6.256;2023-07-08T03:12:03;7.15;;;5.10;;
12467;SDS011;57850;52.922;6.256;2023-07-08T03:14:30;7.40;;;4.72;;
12467;SDS011;57850;52.922;6.256;2023-07-08T03:16:56;11.73;;;5.68;;
12467;SDS011;57850;52.922;6.256;2023-07-08T03:19:23;8.02;;;4.75;;
12467;SDS011;57850;52.922;6.256;2023-07-08T03:21:52;6.43;;;4.60;;
12467;SDS011;57850;52.922;6.256;2023-07-08T03:24:18;6.25;;;4.93;;
12467;SDS011;57850;52.922;6.256;2023-07-08T03:26:45;6.70;;;4.82;;
12467;SDS011;57850;52.922;6.256;2023-07-08T03:29:13;9.60;;;5.22;;
12467;SDS011;57850;52.922;6.256;2023-07-08T03:31:41;8.98;;;4.68;;
12467;SDS011;57850;52.922;6.256;2023-07-08T03:34:09;5.45;;;4.82;;
12467;SDS011;57850;52.922;6.256;2023-07-08T03:36:37;10.32;;;5.38;;
12467;SDS011;57850;52.922;6.256;2023-07-08T03:39:15;6.97;;;4.90;;
12467;SDS011;57850;52.922;6.256;2023-07-08T03:41:42;8.23;;;5.50;;
12467;SDS011;57850;52.922;6.256;2023-07-08T03:44:09;8.35;;;5.40;;
12467;SDS011;57850;52.922;6.256;2023-07-08T03:46:36;7.80;;;5.00;;
12467;SDS011;57850;52.922;6.256;2023-07-08T03:49:03;7.03;;;4.72;;
12467;SDS011;57850;52.922;6.256;2023-07-08T03:51:33;7.50;;;5.30;;
12467;SDS011;57850;52.922;6.256;2023-07-08T03:54:02;8.65;;;4.78;;
12467;SDS011;57850;52.922;6.256;2023-07-08T03:56:30;8.40;;;4.82;;
12467;SDS011;57850;52.922;6.256;2023-07-08T03:58:57;6.00;;;5.10;;
12467;SDS011;57850;52.922;6.256;2023-07-08T04:01:24;7.47;;;5.55;;
12467;SDS011;57850;52.922;6.256;2023-07-08T04:03:52;9.20;;;5.50;;
12467;SDS011;57850;52.922;6.256;2023-07-08T04:06:20;9.82;;;5.43;;
12467;SDS011;57850;52.922;6.256;2023-07-08T04:08:47;6.72;;;5.32;;
12467;SDS011;57850;52.922;6.256;2023-07-08T04:11:16;10.57;;;5.82;;
12467;SDS011;57850;52.922;6.256;2023-07-08T04:13:46;6.13;;;4.97;;
12467;SDS011;57850;52.922;6.256;2023-07-08T04:16:14;7.68;;;4.93;;
12467;SDS011;57850;52.922;6.256;2023-07-08T04:18:43;6.78;;;4.72;;
12467;SDS011;57850;52.922;6.256;2023-07-08T04:21:10;7.50;;;5.00;;
12467;SDS011;57850;52.922;6.256;2023-07-08T04:23:36;7.97;;;5.40;;
12467;SDS011;57850;52.922;6.256;2023-07-08T04:26:03;6.57;;;5.53;;
12467;SDS011;57850;52.922;6.256;2023-07-08T04:28:30;7.60;;;4.90;;
12467;SDS011;57850;52.922;6.256;2023-07-08T04:30:58;9.20;;;5.40;;
12467;SDS011;57850;52.922;6.256;2023-07-08T04:33:24;10.45;;;5.30;;
12467;SDS011;57850;52.922;6.256;2023-07-08T04:35:51;8.98;;;5.50;;
12467;SDS011;57850;52.922;6.256;2023-07-08T04:38:20;6.53;;;5.05;;
12467;SDS011;57850;52.922;6.256;2023-07-08T04:40:48;8.27;;;5.07;;
12467;SDS011;57850;52.922;6.256;2023-07-08T04:43:16;8.63;;;5.10;;
12467;SDS011;57850;52.922;6.256;2023-07-08T04:45:43;8.32;;;5.43;;
12467;SDS011;57850;52.922;6.256;2023-07-08T04:48:17;6.82;;;4.97;;
12467;SDS011;57850;52.922;6.256;2023-07-08T04:50:46;6.32;;;5.15;;
12467;SDS011;57850;52.922;6.256;2023-07-08T04:53:14;5.32;;;4.57;;
12467;SDS011;57850;52.922;6.256;2023-07-08T04:55:42;7.70;;;4.78;;
12467;SDS011;57850;52.922;6.256;2023-07-08T04:58:11;9.80;;;5.07;;
12467;SDS011;57850;52.922;6.256;2023-07-08T05:00:37;5.60;;;4.88;;
12467;SDS011;57850;52.922;6.256;2023-07-08T05:03:04;6.65;;;4.60;;
12467;SDS011;57850;52.922;6.256;2023-07-08T05:05:32;7.78;;;5.28;;
12467;SDS011;57850;52.922;6.256;2023-07-08T05:07:59;7.75;;;5.55;;
12467;SDS011;57850;52.922;6.256;2023-07-08T05:10:26;5.13;;;4.63;;
12467;SDS011;57850;52.922;6.256;2023-07-08T05:12:53;7.55;;;5.35;;
12467;SDS011;57850;52.922;6.256;2023-07-08T05:15:19;6.03;;;5.03;;
12467;SDS011;57850;52.922;6.256;2023-07-08T05:17:46;7.38;;;4.65;;
12467;SDS011;57850;52.922;6.256;2023-07-08T05:20:14;8.00;;;4.63;;
12467;SDS011;57850;52.922;6.256;2023-07-08T05:22:42;7.20;;;5.25;;
12467;SDS011;57850;52.922;6.256;2023-07-08T05:25:09;5.80;;;4.72;;
12467;SDS011;57850;52.922;6.256;2023-07-08T05:27:35;8.93;;;4.97;;
12467;SDS011;57850;52.922;6.256;2023-07-08T05:30:02;6.45;;;4.88;;
12467;SDS011;57850;52.922;6.256;2023-07-08T05:32:30;7.25;;;4.55;;
12467;SDS011;57850;52.922;6.256;2023-07-08T05:34:57;6.43;;;5.05;;
12467;SDS011;57850;52.922;6.256;2023-07-08T05:37:24;6.40;;;4.65;;
12467;SDS011;57850;52.922;6.256;2023-07-08T05:39:55;8.65;;;4.78;;
12467;SDS011;57850;52.922;6.256;2023-07-08T05:42:22;6.75;;;4.70;;
12467;SDS011;57850;52.922;6.256;2023-07-08T05:44:48;5.78;;;4.93;;
12467;SDS011;57850;52.922;6.256;2023-07-08T05:47:17;5.95;;;4.32;;
12467;SDS011;57850;52.922;6.256;2023-07-08T05:49:44;8.13;;;4.90;;
12467;SDS011;57850;52.922;6.256;2023-07-08T05:52:10;7.10;;;5.03;;
12467;SDS011;57850;52.922;6.256;2023-07-08T05:54:37;5.60;;;4.53;;
12467;SDS011;57850;52.922;6.256;2023-07-08T05:57:06;5.25;;;4.43;;
12467;SDS011;57850;52.922;6.256;2023-07-08T05:59:35;9.25;;;4.90;;
12467;SDS011;57850;52.922;6.256;2023-07-08T06:02:04;7.85;;;4.80;;
12467;SDS011;57850;52.922;6.256;2023-07-08T06:04:32;7.82;;;4.90;;
12467;SDS011;57850;52.922;6.256;2023-07-08T06:06:59;9.52;;;4.60;;
12467;SDS011;57850;52.922;6.256;2023-07-08T06:09:25;8.20;;;5.18;;
12467;SDS011;57850;52.922;6.256;2023-07-08T06:11:52;7.03;;;4.45;;
12467;SDS011;57850;52.922;6.256;2023-07-08T06:14:21;5.60;;;4.13;;
12467;SDS011;57850;52.922;6.256;2023-07-08T06:16:47;5.28;;;4.50;;
12467;SDS011;57850;52.922;6.256;2023-07-08T06:19:14;6.75;;;4.05;;
12467;SDS011;57850;52.922;6.256;2023-07-08T06:21:42;7.32;;;3.95;;
12467;SDS011;57850;52.922;6.256;2023-07-08T06:24:09;6.32;;;4.10;;
12467;SDS011;57850;52.922;6.256;2023-07-08T06:26:36;9.65;;;4.22;;
12467;SDS011;57850;52.922;6.256;2023-07-08T06:29:02;4.25;;;3.60;;
12467;SDS011;57850;52.922;6.256;2023-07-08T06:31:31;4.45;;;3.85;;
12467;SDS011;57850;52.922;6.256;2023-07-08T06:33:58;4.70;;;4.20;;
12467;SDS011;57850;52.922;6.256;2023-07-08T06:36:25;4.53;;;3.85;;
12467;SDS011;57850;52.922;6.256;2023-07-08T06:38:52;11.30;;;4.53;;
12467;SDS011;57850;52.922;6.256;2023-07-08T06:41:18;5.97;;;4.03;;
12467;SDS011;57850;52.922;6.256;2023-07-08T06:43:45;5.13;;;3.67;;
12467;SDS011;57850;52.922;6.256;2023-07-08T06:46:11;6.18;;;3.95;;
12467;SDS011;57850;52.922;6.256;2023-07-08T06:48:39;4.53;;;3.70;;
12467;SDS011;57850;52.922;6.256;2023-07-08T06:51:06;7.03;;;4.32;;
12467;SDS011;57850;52.922;6.256;2023-07-08T06:53:33;4.78;;;3.92;;
12467;SDS011;57850;52.922;6.256;2023-07-08T06:55:59;6.90;;;3.60;;
12467;SDS011;57850;52.922;6.256;2023-07-08T06:58:27;6.45;;;3.80;;
12467;SDS011;57850;52.922;6.256;2023-07-08T07:00:53;4.03;;;3.63;;
12467;SDS011;57850;52.922;6.256;2023-07-08T07:03:20;7.22;;;3.70;;
12467;SDS011;57850;52.922;6.256;2023-07-08T07:05:48;4.88;;;3.90;;
12467;SDS011;57850;52.922;6.256;2023-07-08T07:08:14;5.07;;;3.78;;
12467;SDS011;57850;52.922;6.256;2023-07-08T07:10:41;6.00;;;3.40;;
12467;SDS011;57850;52.922;6.256;2023-07-08T07:13:08;6.75;;;3.33;;
12467;SDS011;57850;52.922;6.256;2023-07-08T07:15:35;8.40;;;3.70;;
12467;SDS011;57850;52.922;6.256;2023-07-08T07:18:02;7.55;;;3.58;;
12467;SDS011;57850;52.922;6.256;2023-07-08T07:20:28;5.93;;;3.25;;
12467;SDS011;57850;52.922;6.256;2023-07-08T07:22:56;7.75;;;3.80;;
12467;SDS011;57850;52.922;6.256;2023-07-08T07:25:23;6.63;;;3.85;;
12467;SDS011;57850;52.922;6.256;2023-07-08T07:27:50;6.15;;;3.83;;
12467;SDS011;57850;52.922;6.256;2023-07-08T07:30:16;5.25;;;3.53;;
12467;SDS011;57850;52.922;6.256;2023-07-08T07:32:43;5.70;;;3.97;;
12467;SDS011;57850;52.922;6.256;2023-07-08T07:35:10;5.78;;;3.58;;
12467;SDS011;57850;52.922;6.256;2023-07-08T07:37:39;6.18;;;3.92;;
12467;SDS011;57850;52.922;6.256;2023-07-08T07:40:09;5.20;;;3.72;;
12467;SDS011;57850;52.922;6.256;2023-07-08T07:42:39;5.63;;;3.72;;
12467;SDS011;57850;52.922;6.256;2023-07-08T07:45:07;4.93;;;3.50;;
12467;SDS011;57850;52.922;6.256;2023-07-08T07:47:34;4.38;;;3.63;;
12467;SDS011;57850;52.922;6.256;2023-07-08T07:50:02;14.32;;;4.40;;
12467;SDS011;57850;52.922;6.256;2023-07-08T07:52:28;4.97;;;3.50;;
12467;SDS011;57850;52.922;6.256;2023-07-08T07:54:55;7.82;;;4.43;;
12467;SDS011;57850;52.922;6.256;2023-07-08T07:57:24;5.15;;;3.70;;
12467;SDS011;57850;52.922;6.256;2023-07-08T07:59:50;7.22;;;4.00;;
12467;SDS011;57850;52.922;6.256;2023-07-08T08:02:17;5.78;;;4.13;;
12467;SDS011;57850;52.922;6.256;2023-07-08T08:04:45;5.90;;;3.90;;
12467;SDS011;57850;52.922;6.256;2023-07-08T08:07:11;4.22;;;3.45;;
12467;SDS011;57850;52.922;6.256;2023-07-08T08:09:38;6.53;;;3.53;;
12467;SDS011;57850;52.922;6.256;2023-07-08T08:12:06;5.53;;;3.45;;
12467;SDS011;57850;52.922;6.256;2023-07-08T08:14:36;4.28;;;3.90;;
12467;SDS011;57850;52.922;6.256;2023-07-08T08:17:03;7.30;;;3.60;;
12467;SDS011;57850;52.922;6.256;2023-07-08T08:19:30;5.65;;;3.95;;
12467;SDS011;57850;52.922;6.256;2023-07-08T08:21:57;5.25;;;4.00;;
12467;SDS011;57850;52.922;6.256;2023-07-08T08:24:24;4.35;;;3.75;;
12467;SDS011;57850;52.922;6.256;2023-07-08T08:26:51;5.00;;;3.58;;
12467;SDS011;57850;52.922;6.256;2023-07-08T08:29:17;5.50;;;3.85;;
12467;SDS011;57850;52.922;6.256;2023-07-08T08:31:45;7.32;;;4.22;;
12467;SDS011;57850;52.922;6.256;2023-07-08T08:34:12;10.60;;;4.78;;
12467;SDS011;57850;52.922;6.256;2023-07-08T08:36:38;11.95;;;4.93;;
12467;SDS011;57850;52.922;6.256;2023-07-08T08:39:05;5.72;;;4.05;;
12467;SDS011;57850;52.922;6.256;2023-07-08T08:41:33;5.38;;;3.95;;
12467;SDS011;57850;52.922;6.256;2023-07-08T08:44:01;5.55;;;3.92;;
12467;SDS011;57850;52.922;6.256;2023-07-08T08:46:32;10.00;;;4.57;;
12467;SDS011;57850;52.922;6.256;2023-07-08T08:49:08;6.57;;;4.18;;
12467;SDS011;57850;52.922;6.256;2023-07-08T08:51:42;6.63;;;3.80;;
12467;SDS011;57850;52.922;6.256;2023-07-08T08:54:09;6.60;;;4.47;;
12467;SDS011;57850;52.922;6.256;2023-07-08T08:56:38;6.72;;;4.30;;
12467;SDS011;57850;52.922;6.256;2023-07-08T08:59:11;7.05;;;4.45;;
12467;SDS011;57850;52.922;6.256;2023-07-08T09:01:44;8.20;;;4.07;;
12467;SDS011;57850;52.922;6.256;2023-07-08T09:04:15;9.52;;;3.97;;
12467;SDS011;57850;52.922;6.256;2023-07-08T09:06:47;7.60;;;4.50;;
12467;SDS011;57850;52.922;6.256;2023-07-08T09:09:15;8.95;;;3.90;;
12467;SDS011;57850;52.922;6.256;2023-07-08T09:11:48;10.18;;;4.50;;
12467;SDS011;57850;52.922;6.256;2023-07-08T09:14:19;4.47;;;3.83;;
12467;SDS011;57850;52.922;6.256;2023-07-08T09:16:53;7.07;;;4.30;;
12467;SDS011;57850;52.922;6.256;2023-07-08T09:19:35;4.97;;;3.67;;
12467;SDS011;57850;52.922;6.256;2023-07-08T09:22:09;5.75;;;4.00;;
12467;SDS011;57850;52.922;6.256;2023-07-08T09:24:41;5.13;;;4.00;;
12467;SDS011;57850;52.922;6.256;2023-07-08T09:27:09;4.20;;;3.67;;
12467;SDS011;57850;52.922;6.256;2023-07-08T09:29:36;4.75;;;4.28;;
12467;SDS011;57850;52.922;6.256;2023-07-08T09:32:11;5.85;;;3.75;;
12467;SDS011;57850;52.922;6.256;2023-07-08T09:34:42;8.50;;;4.45;;
12467;SDS011;57850;52.922;6.256;2023-07-08T09:37:22;6.32;;;4.30;;
12467;SDS011;57850;52.922;6.256;2023-07-08T09:39:51;7.60;;;4.00;;
12467;SDS011;57850;52.922;6.256;2023-07-08T09:42:18;4.28;;;3.88;;
12467;SDS011;57850;52.922;6.256;2023-07-08T09:44:47;5.05;;;4.05;;
12467;SDS011;57850;52.922;6.256;2023-07-08T09:47:21;5.70;;;4.30;;
12467;SDS011;57850;52.922;6.256;2023-07-08T09:49:50;5.63;;;4.35;;
12467;SDS011;57850;52.922;6.256;2023-07-08T09:52:19;11.10;;;4.53;;
12467;SDS011;57850;52.922;6.256;2023-07-08T09:54:46;4.90;;;4.40;;
12467;SDS011;57850;52.922;6.256;2023-07-08T09:57:16;4.68;;;4.25;;
12467;SDS011;57850;52.922;6.256;2023-07-08T09:59:53;9.18;;;4.32;;
12467;SDS011;57850;52.922;6.256;2023-07-08T10:02:28;4.95;;;4.07;;
12467;SDS011;57850;52.922;6.256;2023-07-08T10:05:00;6.68;;;4.40;;
12467;SDS011;57850;52.922;6.256;2023-07-08T10:07:37;9.23;;;4.45;;
12467;SDS011;57850;52.922;6.256;2023-07-08T10:10:04;4.95;;;4.55;;
12467;SDS011;57850;52.922;6.256;2023-07-08T10:12:36;5.72;;;4.35;;
12467;SDS011;57850;52.922;6.256;2023-07-08T10:15:24;5.40;;;4.60;;
12467;SDS011;57850;52.922;6.256;2023-07-08T10:17:55;10.18;;;4.20;;
12467;SDS011;57850;52.922;6.256;2023-07-08T10:20:24;6.95;;;4.35;;
12467;SDS011;57850;52.922;6.256;2023-07-08T10:23:04;5.07;;;4.50;;
12467;SDS011;57850;52.922;6.256;2023-07-08T10:25:44;6.47;;;4.63;;
12467;SDS011;57850;52.922;6.256;2023-07-08T10:28:21;5.07;;;4.63;;
12467;SDS011;57850;52.922;6.256;2023-07-08T10:30:57;5.43;;;4.65;;
12467;SDS011;57850;52.922;6.256;2023-07-08T10:33:38;5.43;;;4.88;;
12467;SDS011;57850;52.922;6.256;2023-07-08T10:36:21;6.32;;;4.70;;
12467;SDS011;57850;52.922;6.256;2023-07-08T10:39:02;7.50;;;4.72;;
12467;SDS011;57850;52.922;6.256;2023-07-08T10:41:50;5.78;;;4.85;;
12467;SDS011;57850;52.922;6.256;2023-07-08T10:44:26;5.00;;;4.60;;
12467;SDS011;57850;52.922;6.256;2023-07-08T10:46:59;6.28;;;4.85;;
12467;SDS011;57850;52.922;6.256;2023-07-08T10:52:34;5.90;;;5.13;;
12467;SDS011;57850;52.922;6.256;2023-07-08T10:55:19;8.13;;;5.07;;
12467;SDS011;57850;52.922;6.256;2023-07-08T10:58:03;7.57;;;4.82;;
12467;SDS011;57850;52.922;6.256;2023-07-08T11:00:45;5.05;;;4.65;;
12467;SDS011;57850;52.922;6.256;2023-07-08T11:03:31;6.63;;;5.28;;
12467;SDS011;57850;52.922;6.256;2023-07-08T11:06:20;5.45;;;4.95;;
12467;SDS011;57850;52.922;6.256;2023-07-08T11:08:53;7.65;;;5.15;;
12467;SDS011;57850;52.922;6.256;2023-07-08T11:11:27;6.57;;;5.88;;
12467;SDS011;57850;52.922;6.256;2023-07-08T11:13:59;7.15;;;5.88;;
12467;SDS011;57850;52.922;6.256;2023-07-08T11:16:33;6.20;;;5.68;;
12467;SDS011;57850;52.922;6.256;2023-07-08T11:19:07;7.13;;;5.82;;
12467;SDS011;57850;52.922;6.256;2023-07-08T11:21:40;6.75;;;5.38;;
12467;SDS011;57850;52.922;6.256;2023-07-08T11:24:14;5.82;;;5.20;;
12467;SDS011;57850;52.922;6.256;2023-07-08T11:26:47;6.00;;;5.13;;
12467;SDS011;57850;52.922;6.256;2023-07-08T11:29:18;5.30;;;4.90;;
12467;SDS011;57850;52.922;6.256;2023-07-08T11:31:48;5.72;;;5.18;;
12467;SDS011;57850;52.922;6.256;2023-07-08T11:34:18;5.40;;;4.90;;
12467;SDS011;57850;52.922;6.256;2023-07-08T11:36:46;5.97;;;4.93;;
12467;SDS011;57850;52.922;6.256;2023-07-08T11:39:31;5.00;;;4.60;;
12467;SDS011;57850;52.922;6.256;2023-07-08T11:42:03;8.07;;;5.70;;
12467;SDS011;57850;52.922;6.256;2023-07-08T11:44:37;6.82;;;5.20;;
12467;SDS011;57850;52.922;6.256;2023-07-08T11:47:10;7.40;;;5.75;;
12467;SDS011;57850;52.922;6.256;2023-07-08T11:49:42;8.25;;;5.43;;
12467;SDS011;57850;52.922;6.256;2023-07-08T11:52:08;7.55;;;5.88;;
12467;SDS011;57850;52.922;6.256;2023-07-08T11:54:44;5.32;;;4.82;;
12467;SDS011;57850;52.922;6.256;2023-07-08T11:57:16;5.82;;;5.32;;
12467;SDS011;57850;52.922;6.256;2023-07-08T11:59:44;6.18;;;5.60;;
12467;SDS011;57850;52.922;6.256;2023-07-08T12:02:13;7.20;;;5.15;;
12467;SDS011;57850;52.922;6.256;2023-07-08T12:04:58;6.07;;;5.45;;
12467;SDS011;57850;52.922;6.256;2023-07-08T12:07:31;8.10;;;5.68;;
12467;SDS011;57850;52.922;6.256;2023-07-08T12:10:05;7.47;;;5.65;;
12467;SDS011;57850;52.922;6.256;2023-07-08T12:12:37;6.90;;;5.22;;
12467;SDS011;57850;52.922;6.256;2023-07-08T12:15:10;7.35;;;5.65;;
12467;SDS011;57850;52.922;6.256;2023-07-08T12:17:39;6.55;;;5.97;;
12467;SDS011;57850;52.922;6.256;2023-07-08T12:20:18;6.30;;;5.80;;
12467;SDS011;57850;52.922;6.256;2023-07-08T12:22:49;6.00;;;5.50;;
12467;SDS011;57850;52.922;6.256;2023-07-08T12:25:17;5.80;;;5.40;;
12467;SDS011;57850;52.922;6.256;2023-07-08T12:27:46;6.72;;;5.68;;
12467;SDS011;57850;52.922;6.256;2023-07-08T12:30:13;6.65;;;6.05;;
12467;SDS011;57850;52.922;6.256;2023-07-08T12:32:41;7.18;;;6.32;;
12467;SDS011;57850;52.922;6.256;2023-07-08T12:35:25;6.82;;;6.13;;
12467;SDS011;57850;52.922;6.256;2023-07-08T12:37:54;7.05;;;6.35;;
12467;SDS011;57850;52.922;6.256;2023-07-08T12:40:25;6.88;;;6.20;;
12467;SDS011;57850;52.922;6.256;2023-07-08T12:42:54;6.93;;;6.32;;
12467;SDS011;57850;52.922;6.256;2023-07-08T12:45:21;7.20;;;6.50;;
12467;SDS011;57850;52.922;6.256;2023-07-08T12:47:50;7.10;;;6.40;;
12467;SDS011;57850;52.922;6.256;2023-07-08T12:50:17;7.72;;;6.85;;
12467;SDS011;57850;52.922;6.256;2023-07-08T12:52:44;7.20;;;6.50;;
12467;SDS011;57850;52.922;6.256;2023-07-08T12:55:12;9.30;;;6.25;;
12467;SDS011;57850;52.922;6.256;2023-07-08T12:57:42;6.70;;;6.10;;
12467;SDS011;57850;52.922;6.256;2023-07-08T13:00:12;6.70;;;6.00;;
12467;SDS011;57850;52.922;6.256;2023-07-08T13:02:45;7.38;;;6.05;;
12467;SDS011;57850;52.922;6.256;2023-07-08T13:05:13;6.60;;;6.05;;
12467;SDS011;57850;52.922;6.256;2023-07-08T13:07:41;7.53;;;6.80;;
12467;SDS011;57850;52.922;6.256;2023-07-08T13:10:15;8.00;;;6.57;;
12467;SDS011;57850;52.922;6.256;2023-07-08T13:12:46;7.70;;;6.85;;
12467;SDS011;57850;52.922;6.256;2023-07-08T13:15:19;7.70;;;6.65;;
12467;SDS011;57850;52.922;6.256;2023-07-08T13:17:49;8.25;;;7.05;;
12467;SDS011;57850;52.922;6.256;2023-07-08T13:20:17;7.47;;;6.78;;
12467;SDS011;57850;52.922;6.256;2023-07-08T13:22:45;6.95;;;6.28;;
12467;SDS011;57850;52.922;6.256;2023-07-08T13:25:17;7.90;;;7.03;;
12467;SDS011;57850;52.922;6.256;2023-07-08T13:27:55;8.18;;;7.25;;
12467;SDS011;57850;52.922;6.256;2023-07-08T13:30:23;7.68;;;6.38;;
12467;SDS011;57850;52.922;6.256;2023-07-08T13:32:53;10.40;;;7.35;;
12467;SDS011;57850;52.922;6.256;2023-07-08T13:35:21;6.93;;;6.22;;
12467;SDS011;57850;52.922;6.256;2023-07-08T13:37:53;7.95;;;7.15;;
12467;SDS011;57850;52.922;6.256;2023-07-08T13:40:22;10.93;;;6.65;;
12467;SDS011;57850;52.922;6.256;2023-07-08T13:42:52;7.45;;;6.65;;
12467;SDS011;57850;52.922;6.256;2023-07-08T13:45:23;8.13;;;7.07;;
12467;SDS011;57850;52.922;6.256;2023-07-08T13:47:58;9.82;;;7.28;;
12467;SDS011;57850;52.922;6.256;2023-07-08T13:50:31;8.63;;;6.72;;
12467;SDS011;57850;52.922;6.256;2023-07-08T13:53:15;8.77;;;7.88;;
12467;SDS011;57850;52.922;6.256;2023-07-08T13:55:43;9.80;;;6.82;;
12467;SDS011;57850;52.922;6.256;2023-07-08T13:58:13;11.70;;;7.30;;
12467;SDS011;57850;52.922;6.256;2023-07-08T14:00:42;8.52;;;7.63;;
12467;SDS011;57850;52.922;6.256;2023-07-08T14:03:10;8.00;;;7.20;;
12467;SDS011;57850;52.922;6.256;2023-07-08T14:05:39;8.77;;;6.32;;
12467;SDS011;57850;52.922;6.256;2023-07-08T14:08:09;10.35;;;7.20;;
12467;SDS011;57850;52.922;6.256;2023-07-08T14:10:39;9.10;;;7.32;;
12467;SDS011;57850;52.922;6.256;2023-07-08T14:13:06;8.80;;;7.40;;
12467;SDS011;57850;52.922;6.256;2023-07-08T14:15:34;8.10;;;7.03;;
12467;SDS011;57850;52.922;6.256;2023-07-08T14:18:00;10.80;;;7.43;;
12467;SDS011;57850;52.922;6.256;2023-07-08T14:20:28;9.18;;;7.70;;
12467;SDS011;57850;52.922;6.256;2023-07-08T14:22:55;8.15;;;7.35;;
12467;SDS011;57850;52.922;6.256;2023-07-08T14:25:22;8.10;;;7.25;;
12467;SDS011;57850;52.922;6.256;2023-07-08T14:27:48;7.90;;;7.10;;
12467;SDS011;57850;52.922;6.256;2023-07-08T14:30:16;8.00;;;7.15;;
12467;SDS011;57850;52.922;6.256;2023-07-08T14:32:44;7.78;;;6.90;;
12467;SDS011;57850;52.922;6.256;2023-07-08T14:35:14;10.07;;;7.40;;
12467;SDS011;57850;52.922;6.256;2023-07-08T14:37:42;8.55;;;6.82;;
12467;SDS011;57850;52.922;6.256;2023-07-08T14:40:24;8.48;;;6.95;;
12467;SDS011;57850;52.922;6.256;2023-07-08T14:42:54;10.18;;;7.10;;
12467;SDS011;57850;52.922;6.256;2023-07-08T14:45:23;7.78;;;6.90;;
12467;SDS011;57850;52.922;6.256;2023-07-08T14:47:51;7.82;;;6.97;;
12467;SDS011;57850;52.922;6.256;2023-07-08T14:50:19;9.02;;;7.47;;
12467;SDS011;57850;52.922;6.256;2023-07-08T14:52:45;8.52;;;7.07;;
12467;SDS011;57850;52.922;6.256;2023-07-08T14:55:12;8.07;;;7.28;;
12467;SDS011;57850;52.922;6.256;2023-07-08T14:57:41;7.60;;;6.88;;
12467;SDS011;57850;52.922;6.256;2023-07-08T15:00:11;7.90;;;7.10;;
12467;SDS011;57850;52.922;6.256;2023-07-08T15:02:39;9.90;;;7.25;;
12467;SDS011;57850;52.922;6.256;2023-07-08T15:05:10;8.65;;;7.75;;